Otagawa — JD3046 — position and weather

sailwx.info

Track history (hours):
 
Tides and Currents Weather Stations Pressure Air Temp Water Temp Dewpoint Dewpoint Depression Visibility Wind Speed Wind Dir Waves Ship Positions

Otagawa

Last reported at 2015-Jul-27 21:09 UTC. Time now 2015-Jul-28 17:44 UTC.
Position N 34°58' E 139°23'.

Length 70 m; draft 4 m.

Type: Cargo ship. MMSI: 431001328.

Date/timePositionNaut miles runAvg speedWind from/ knotsBaromVisibWave heightAir tempDewpointWater temp
2015-Jul-27 21:09N 34°58' E 139°23'710.0
2015-Jul-27 20:28N 35°02' E 139°30'1010.7
2015-Jul-27 19:33N 35°07' E 139°40'1010.2
2015-Jul-27 18:33N 35°16' E 139°46'10 9.8
2015-Jul-27 17:33N 35°26' E 139°45'9 8.9
2015-Jul-27 16:33N 35°34' E 139°49'3 3.2
2015-Jul-27 15:33N 35°36' E 139°47'0 0.0
2015-Jul-27 14:33N 35°36' E 139°47'2 2.0
2015-Jul-27 13:33N 35°35' E 139°48'2 1.5
2015-Jul-27 12:32N 35°34' E 139°50'0 0.0
2015-Jul-27 11:32N 35°34' E 139°50'0 0.0
2015-Jul-27 10:29N 35°34' E 139°50'0 0.0
2015-Jul-27 09:32N 35°34' E 139°50'0 0.0
2015-Jul-27 08:33N 35°34' E 139°50'0 0.0
2015-Jul-27 07:32N 35°34' E 139°50'0 0.0
2015-Jul-27 06:32N 35°34' E 139°50'6 5.6
2015-Jul-27 05:33N 35°29' E 139°47'6 5.6
2015-Jul-27 04:34N 35°26' E 139°41'1 1.5
2015-Jul-27 03:33N 35°27' E 139°43'0 0.0
2015-Jul-27 02:32N 35°27' E 139°43'2 1.9
2015-Jul-27 01:33N 35°27' E 139°45'8 7.9
2015-Jul-27 00:33N 35°35' E 139°48'2 2.3
2015-Jul-26 23:32N 35°37' E 139°46'0 0.0
2015-Jul-26 22:29N 35°37' E 139°46'0 0.0
2015-Jul-26 21:32N 35°37' E 139°46'0 0.0
2015-Jul-26 20:32N 35°37' E 139°46'0 0.0
2015-Jul-26 19:32N 35°37' E 139°46'0 0.0
2015-Jul-26 18:29N 35°37' E 139°46'0 0.0
2015-Jul-26 17:29N 35°37' E 139°46'0 0.1
2015-Jul-26 16:32N 35°37' E 139°46'0 0.0
2015-Jul-26 15:32N 35°37' E 139°46'0 0.0
2015-Jul-26 14:32N 35°37' E 139°46'0 0.0
2015-Jul-26 13:32N 35°37' E 139°46'0 0.0
2015-Jul-26 12:32N 35°37' E 139°46'0 0.0
2015-Jul-26 11:29N 35°37' E 139°46'0 0.0
2015-Jul-26 10:29N 35°37' E 139°46'0 0.0
2015-Jul-26 09:32N 35°37' E 139°46'4 3.8
2015-Jul-26 08:33N 35°34' E 139°49'9 8.6
2015-Jul-26 07:33N 35°26' E 139°48'9 9.5
2015-Jul-26 06:33N 35°16' E 139°46'1110.8
2015-Jul-26 05:33N 35°05' E 139°45'1010.2
2015-Jul-26 04:33N 34°55' E 139°46'9 9.0
2015-Jul-26 03:33N 34°54' E 139°57'1111.2
2015-Jul-26 02:32N 35°00' E 140°08'1211.0
2015-Jul-26 01:27N 35°07' E 140°21'910.5
2015-Jul-26 00:33N 35°14' E 140°28'1110.6
2015-Jul-25 23:32N 35°22' E 140°36'1010.5
2015-Jul-25 22:33N 35°30' E 140°44'1210.7
2015-Jul-25 21:29N 35°40' E 140°53'1010.7
2015-Jul-25 20:33N 35°49' E 140°56'1111.1
2015-Jul-25 19:32N 36°00' E 140°57'1110.9
2015-Jul-25 18:33N 36°11' E 140°58'1111.0
2015-Jul-25 17:33N 36°22' E 140°59'1511.2
2015-Jul-25 16:11N 36°37' E 141°01'1 0.0
2015-Jul-24 17:17N 36°38' E 141°00'810.7
2015-Jul-24 16:33N 36°30' E 140°59'1110.9
2015-Jul-24 15:33N 36°19' E 140°58'1110.5
2015-Jul-24 14:33N 36°09' E 140°57'1110.4
2015-Jul-24 13:32N 35°58' E 140°55'1110.6
2015-Jul-24 12:31N 35°48' E 140°55'2010.1
2015-Jul-24 10:33N 35°30' E 140°45'1210.8
2015-Jul-24 09:29N 35°21' E 140°36'1211.1
2015-Jul-24 08:22N 35°11' E 140°26'910.5
2015-Jul-24 07:30N 35°04' E 140°19'1010.3
2015-Jul-24 06:33N 34°59' E 140°09'20 8.6
2015-Jul-24 04:13N 34°57' E 139°45'710.5
2015-Jul-24 03:33N 35°03' E 139°45'1110.7
2015-Jul-24 02:33N 35°14' E 139°46'1110.6
2015-Jul-24 01:33N 35°24' E 139°42'2 2.2
2015-Jul-24 00:31N 35°26' E 139°41'0 0.0
2015-Jul-23 23:32N 35°26' E 139°41'0 0.0
2015-Jul-23 22:32N 35°26' E 139°41'0 0.0
2015-Jul-23 21:32N 35°26' E 139°41'0 0.0
2015-Jul-23 20:31N 35°26' E 139°41'0 0.0
2015-Jul-23 19:32N 35°26' E 139°41'0 0.0
2015-Jul-23 18:32N 35°26' E 139°41'0 0.0
2015-Jul-23 17:32N 35°26' E 139°41'0 0.0
2015-Jul-23 16:32N 35°26' E 139°41'0 0.0
2015-Jul-23 15:31N 35°26' E 139°41'0 0.0
2015-Jul-23 14:31N 35°26' E 139°41'0 0.0
2015-Jul-23 13:32N 35°26' E 139°41'0 0.0
2015-Jul-23 12:31N 35°26' E 139°41'0 0.0
2015-Jul-23 11:32N 35°26' E 139°41'0 0.0
2015-Jul-23 10:31N 35°26' E 139°41'0 0.0
2015-Jul-23 09:31N 35°26' E 139°41'0 0.0
2015-Jul-23 08:31N 35°26' E 139°41'0 0.4
2015-Jul-23 07:33N 35°26' E 139°41'1 1.0
2015-Jul-23 06:33N 35°26' E 139°42'0 0.0
2015-Jul-23 05:33N 35°26' E 139°42'0 0.0
2015-Jul-23 04:32N 35°26' E 139°42'0 0.0
2015-Jul-23 03:33N 35°26' E 139°42'0 0.0
2015-Jul-23 02:33N 35°26' E 139°42'7 7.2
2015-Jul-23 01:33N 35°19' E 139°44'1110.6
2015-Jul-23 00:33N 35°08' E 139°45'1211.8
2015-Jul-22 23:31N 34°59' E 139°35'24 0.6
2015-Jul-21 05:32N 34°47' E 139°10'10 9.0
2015-Jul-21 04:28N 34°53' E 139°19'7 7.2
2015-Jul-21 03:33N 34°57' E 139°25'8 8.4
2015-Jul-21 02:33N 35°02' E 139°33'1010.4
2015-Jul-21 01:33N 35°09' E 139°43'1010.1
2015-Jul-21 00:33N 35°19' E 139°43'6 5.7
2015-Jul-20 23:33N 35°24' E 139°41'1 1.1
2015-Jul-20 22:33N 35°23' E 139°40'0 0.0
2015-Jul-20 21:33N 35°23' E 139°40'0 0.0
2015-Jul-20 20:33N 35°23' E 139°40'0 0.1
2015-Jul-20 19:33N 35°23' E 139°40'0 0.0
2015-Jul-20 18:33N 35°23' E 139°40'9 9.2
2015-Jul-20 17:33N 35°16' E 139°47'1010.5
2015-Jul-20 16:33N 35°05' E 139°44'1211.6
2015-Jul-20 15:33N 34°58' E 139°33'136 5.4
2015-Jul-19 14:33N 34°53' E 136°47'  
Track history (hours):
 
Tides and Currents Weather Stations Pressure Air Temp Water Temp Dewpoint Dewpoint Depression Visibility Wind Speed Wind Dir Waves Ship Positions

Otagawa

Last reported at 2015-Jul-27 21:09 UTC. Time now 2015-Jul-28 17:44 UTC.
Position N 34°58' E 139°23'.

Length 70 m; draft 4 m.

Type: Cargo ship. MMSI: 431001328.

Date/timePositionNaut miles runAvg speedWind from/ knotsBaromVisibWave heightAir tempDewpointWater temp
2015-Jul-27 21:09N 34°58' E 139°23'710.0
2015-Jul-27 20:28N 35°02' E 139°30'1010.7
2015-Jul-27 19:33N 35°07' E 139°40'1010.2
2015-Jul-27 18:33N 35°16' E 139°46'10 9.8
2015-Jul-27 17:33N 35°26' E 139°45'9 8.9
2015-Jul-27 16:33N 35°34' E 139°49'3 3.2
2015-Jul-27 15:33N 35°36' E 139°47'0 0.0
2015-Jul-27 14:33N 35°36' E 139°47'2 2.0
2015-Jul-27 13:33N 35°35' E 139°48'2 1.5
2015-Jul-27 12:32N 35°34' E 139°50'0 0.0
2015-Jul-27 11:32N 35°34' E 139°50'0 0.0
2015-Jul-27 10:29N 35°34' E 139°50'0 0.0
2015-Jul-27 09:32N 35°34' E 139°50'0 0.0
2015-Jul-27 08:33N 35°34' E 139°50'0 0.0
2015-Jul-27 07:32N 35°34' E 139°50'0 0.0
2015-Jul-27 06:32N 35°34' E 139°50'6 5.6
2015-Jul-27 05:33N 35°29' E 139°47'6 5.6
2015-Jul-27 04:34N 35°26' E 139°41'1 1.5
2015-Jul-27 03:33N 35°27' E 139°43'0 0.0
2015-Jul-27 02:32N 35°27' E 139°43'2 1.9
2015-Jul-27 01:33N 35°27' E 139°45'8 7.9
2015-Jul-27 00:33N 35°35' E 139°48'2 2.3
2015-Jul-26 23:32N 35°37' E 139°46'0 0.0
2015-Jul-26 22:29N 35°37' E 139°46'0 0.0
2015-Jul-26 21:32N 35°37' E 139°46'0 0.0
2015-Jul-26 20:32N 35°37' E 139°46'0 0.0
2015-Jul-26 19:32N 35°37' E 139°46'0 0.0
2015-Jul-26 18:29N 35°37' E 139°46'0 0.0
2015-Jul-26 17:29N 35°37' E 139°46'0 0.1
2015-Jul-26 16:32N 35°37' E 139°46'0 0.0
2015-Jul-26 15:32N 35°37' E 139°46'0 0.0
2015-Jul-26 14:32N 35°37' E 139°46'0 0.0
2015-Jul-26 13:32N 35°37' E 139°46'0 0.0
2015-Jul-26 12:32N 35°37' E 139°46'0 0.0
2015-Jul-26 11:29N 35°37' E 139°46'0 0.0
2015-Jul-26 10:29N 35°37' E 139°46'0 0.0
2015-Jul-26 09:32N 35°37' E 139°46'4 3.8
2015-Jul-26 08:33N 35°34' E 139°49'9 8.6
2015-Jul-26 07:33N 35°26' E 139°48'9 9.5
2015-Jul-26 06:33N 35°16' E 139°46'1110.8
2015-Jul-26 05:33N 35°05' E 139°45'1010.2
2015-Jul-26 04:33N 34°55' E 139°46'9 9.0
2015-Jul-26 03:33N 34°54' E 139°57'1111.2
2015-Jul-26 02:32N 35°00' E 140°08'1211.0
2015-Jul-26 01:27N 35°07' E 140°21'910.5
2015-Jul-26 00:33N 35°14' E 140°28'1110.6
2015-Jul-25 23:32N 35°22' E 140°36'1010.5
2015-Jul-25 22:33N 35°30' E 140°44'1210.7
2015-Jul-25 21:29N 35°40' E 140°53'1010.7
2015-Jul-25 20:33N 35°49' E 140°56'1111.1
2015-Jul-25 19:32N 36°00' E 140°57'1110.9
2015-Jul-25 18:33N 36°11' E 140°58'1111.0
2015-Jul-25 17:33N 36°22' E 140°59'1511.2
2015-Jul-25 16:11N 36°37' E 141°01'1 0.0
2015-Jul-24 17:17N 36°38' E 141°00'810.7
2015-Jul-24 16:33N 36°30' E 140°59'1110.9
2015-Jul-24 15:33N 36°19' E 140°58'1110.5
2015-Jul-24 14:33N 36°09' E 140°57'1110.4
2015-Jul-24 13:32N 35°58' E 140°55'1110.6
2015-Jul-24 12:31N 35°48' E 140°55'2010.1
2015-Jul-24 10:33N 35°30' E 140°45'1210.8
2015-Jul-24 09:29N 35°21' E 140°36'1211.1
2015-Jul-24 08:22N 35°11' E 140°26'910.5
2015-Jul-24 07:30N 35°04' E 140°19'1010.3
2015-Jul-24 06:33N 34°59' E 140°09'20 8.6
2015-Jul-24 04:13N 34°57' E 139°45'710.5
2015-Jul-24 03:33N 35°03' E 139°45'1110.7
2015-Jul-24 02:33N 35°14' E 139°46'1110.6
2015-Jul-24 01:33N 35°24' E 139°42'2 2.2
2015-Jul-24 00:31N 35°26' E 139°41'0 0.0
2015-Jul-23 23:32N 35°26' E 139°41'0 0.0
2015-Jul-23 22:32N 35°26' E 139°41'0 0.0
2015-Jul-23 21:32N 35°26' E 139°41'0 0.0
2015-Jul-23 20:31N 35°26' E 139°41'0 0.0
2015-Jul-23 19:32N 35°26' E 139°41'0 0.0
2015-Jul-23 18:32N 35°26' E 139°41'0 0.0
2015-Jul-23 17:32N 35°26' E 139°41'0 0.0
2015-Jul-23 16:32N 35°26' E 139°41'0 0.0
2015-Jul-23 15:31N 35°26' E 139°41'0 0.0
2015-Jul-23 14:31N 35°26' E 139°41'0 0.0
2015-Jul-23 13:32N 35°26' E 139°41'0 0.0
2015-Jul-23 12:31N 35°26' E 139°41'0 0.0
2015-Jul-23 11:32N 35°26' E 139°41'0 0.0
2015-Jul-23 10:31N 35°26' E 139°41'0 0.0
2015-Jul-23 09:31N 35°26' E 139°41'0 0.0
2015-Jul-23 08:31N 35°26' E 139°41'0 0.4
2015-Jul-23 07:33N 35°26' E 139°41'1 1.0
2015-Jul-23 06:33N 35°26' E 139°42'0 0.0
2015-Jul-23 05:33N 35°26' E 139°42'0 0.0
2015-Jul-23 04:32N 35°26' E 139°42'0 0.0
2015-Jul-23 03:33N 35°26' E 139°42'0 0.0
2015-Jul-23 02:33N 35°26' E 139°42'7 7.2
2015-Jul-23 01:33N 35°19' E 139°44'1110.6
2015-Jul-23 00:33N 35°08' E 139°45'1211.8
2015-Jul-22 23:31N 34°59' E 139°35'24 0.6
2015-Jul-21 05:32N 34°47' E 139°10'10 9.0
2015-Jul-21 04:28N 34°53' E 139°19'7 7.2
2015-Jul-21 03:33N 34°57' E 139°25'8 8.4
2015-Jul-21 02:33N 35°02' E 139°33'1010.4
2015-Jul-21 01:33N 35°09' E 139°43'1010.1
2015-Jul-21 00:33N 35°19' E 139°43'6 5.7
2015-Jul-20 23:33N 35°24' E 139°41'1 1.1
2015-Jul-20 22:33N 35°23' E 139°40'0 0.0
2015-Jul-20 21:33N 35°23' E 139°40'0 0.0
2015-Jul-20 20:33N 35°23' E 139°40'0 0.1
2015-Jul-20 19:33N 35°23' E 139°40'0 0.0
2015-Jul-20 18:33N 35°23' E 139°40'9 9.2
2015-Jul-20 17:33N 35°16' E 139°47'1010.5
2015-Jul-20 16:33N 35°05' E 139°44'1211.6
2015-Jul-20 15:33N 34°58' E 139°33'136 5.4
2015-Jul-19 14:33N 34°53' E 136°47'  

Dump ship's entire track history